createdAt,value
2022-11-05T00:00:38.300Z,1.93
2022-11-05T00:03:26.949Z,1.80
2022-11-05T00:06:12.631Z,2.40
2022-11-05T00:09:01.300Z,2.10
2022-11-05T00:11:43.103Z,2.13
2022-11-05T00:14:30.553Z,2.20
2022-11-05T00:16:58.361Z,2.30
2022-11-05T00:19:28.315Z,2.60
2022-11-05T00:22:13.695Z,1.95
2022-11-05T00:25:02.182Z,1.90
2022-11-05T00:27:30.014Z,2.37
2022-11-05T00:29:59.971Z,2.33
2022-11-05T00:32:27.746Z,2.20
2022-11-05T00:34:55.530Z,2.70
2022-11-05T00:37:25.432Z,2.23
2022-11-05T00:39:56.454Z,2.15
2022-11-05T00:42:41.645Z,3.17
2022-11-05T00:45:11.755Z,2.27
2022-11-05T00:47:58.488Z,2.28
2022-11-05T00:50:29.282Z,2.30
2022-11-05T00:52:59.681Z,2.80
2022-11-05T00:58:08.124Z,2.67
2022-11-05T01:00:40.601Z,2.40
2022-11-05T01:03:10.469Z,3.07
2022-11-05T01:05:43.897Z,3.42
2022-11-05T01:08:12.214Z,2.83
2022-11-05T01:10:47.606Z,3.60
2022-11-05T01:13:18.495Z,4.23
2022-11-05T01:15:47.173Z,3.73
2022-11-05T01:18:17.328Z,3.80
2022-11-05T01:20:45.455Z,3.70
2022-11-05T01:23:15.461Z,4.10
2022-11-05T01:25:46.630Z,3.90
2022-11-05T01:28:14.446Z,3.83
2022-11-05T01:30:42.258Z,4.10
2022-11-05T01:33:12.441Z,4.40
2022-11-05T01:35:40.752Z,3.50
2022-11-05T01:38:08.606Z,4.07
2022-11-05T01:40:38.523Z,3.70
2022-11-05T01:43:15.379Z,3.30
2022-11-05T01:45:47.756Z,3.13
2022-11-05T01:48:19.792Z,3.97
2022-11-05T01:50:54.732Z,3.50
2022-11-05T01:53:28.034Z,3.23
2022-11-05T01:56:04.433Z,3.60
2022-11-05T01:58:43.676Z,3.23
2022-11-05T02:01:13.753Z,3.27
2022-11-05T02:03:42.763Z,3.03
2022-11-05T02:06:11.929Z,3.70
2022-11-05T02:08:52.799Z,3.50
2022-11-05T02:11:21.311Z,3.60
2022-11-05T02:13:53.023Z,3.83
2022-11-05T02:16:32.904Z,3.60
2022-11-05T02:19:14.535Z,3.40
2022-11-05T02:22:07.445Z,3.57
2022-11-05T02:25:12.775Z,4.13
2022-11-05T02:28:21.013Z,3.40
2022-11-05T02:30:56.145Z,3.43
2022-11-05T02:33:32.353Z,3.63
2022-11-05T02:36:26.908Z,3.47
2022-11-05T02:39:06.714Z,3.37
2022-11-05T02:41:48.650Z,3.42
2022-11-05T02:44:23.919Z,3.30
2022-11-05T02:47:00.330Z,3.20
2022-11-05T02:49:40.228Z,3.87
2022-11-05T02:52:16.592Z,3.72
2022-11-05T02:54:49.439Z,4.43
2022-11-05T02:57:20.414Z,3.73
2022-11-05T02:59:48.204Z,3.67
2022-11-05T03:02:17.705Z,3.60
2022-11-05T03:04:47.730Z,3.97
2022-11-05T03:07:27.408Z,3.88
2022-11-05T03:10:15.218Z,3.30
2022-11-05T03:12:58.104Z,3.43
2022-11-05T03:15:43.379Z,3.37
2022-11-05T03:18:19.572Z,3.20
2022-11-05T03:20:52.657Z,3.73
2022-11-05T03:23:28.856Z,3.40
2022-11-05T03:26:08.613Z,3.37
2022-11-05T03:28:39.461Z,3.10
2022-11-05T03:31:11.344Z,3.60
2022-11-05T03:33:42.591Z,3.30
2022-11-05T03:36:16.301Z,3.10
2022-11-05T03:38:49.083Z,3.70
2022-11-05T03:41:21.507Z,3.00
2022-11-05T03:43:53.067Z,3.43
2022-11-05T03:46:32.562Z,3.07
2022-11-05T03:49:05.438Z,3.30
2022-11-05T03:51:42.244Z,2.90
2022-11-05T03:54:11.574Z,3.10
2022-11-05T03:56:47.292Z,3.17
2022-11-05T03:59:15.453Z,3.40
2022-11-05T04:01:45.719Z,3.13
2022-11-05T04:04:18.096Z,3.00
2022-11-05T04:07:03.514Z,2.80
2022-11-05T04:09:50.725Z,2.90
2022-11-05T04:12:36.144Z,2.67
2022-11-05T04:15:06.780Z,3.03
2022-11-05T04:17:33.675Z,3.03
2022-11-05T04:20:20.132Z,2.93
2022-11-05T04:23:07.586Z,2.50
2022-11-05T04:25:35.707Z,2.60
2022-11-05T04:28:07.684Z,3.03
2022-11-05T04:30:34.475Z,3.37
2022-11-05T04:33:06.004Z,2.53
2022-11-05T04:35:39.027Z,2.80
2022-11-05T04:38:09.489Z,3.17
2022-11-05T04:43:13.598Z,2.72
2022-11-05T04:45:45.388Z,2.40
2022-11-05T04:48:13.573Z,2.40
2022-11-05T04:50:42.990Z,2.67
2022-11-05T04:53:13.315Z,2.83
2022-11-05T04:55:41.352Z,3.23
2022-11-05T04:58:10.123Z,2.40
2022-11-05T05:00:40.174Z,3.10
2022-11-05T05:03:08.192Z,2.40
2022-11-05T05:05:36.436Z,2.60
2022-11-05T05:08:07.799Z,2.37
2022-11-05T05:10:35.586Z,2.50
2022-11-05T05:13:03.390Z,2.73
2022-11-05T05:15:33.970Z,2.60
2022-11-05T05:18:03.885Z,2.33
2022-11-05T05:20:54.342Z,2.65
2022-11-05T05:23:25.753Z,2.60
2022-11-05T05:25:53.968Z,2.77
2022-11-05T05:28:23.681Z,2.83
2022-11-05T05:30:58.522Z,3.17
2022-11-05T05:33:26.684Z,2.20
2022-11-05T05:36:08.432Z,2.50
2022-11-05T05:38:40.192Z,2.70
2022-11-05T05:41:10.098Z,2.30
2022-11-05T05:43:37.874Z,2.95
2022-11-05T05:46:06.509Z,2.50
2022-11-05T05:48:36.456Z,2.40
2022-11-05T05:51:05.365Z,2.65
2022-11-05T05:53:33.821Z,2.40
2022-11-05T05:56:06.174Z,2.60
2022-11-05T05:58:35.419Z,2.63
2022-11-05T06:01:03.873Z,2.50
2022-11-05T06:03:36.110Z,2.60
2022-11-05T06:06:05.200Z,2.70
2022-11-05T06:08:33.519Z,2.60
2022-11-05T06:11:05.599Z,2.50
2022-11-05T06:13:33.843Z,2.57
2022-11-05T06:16:03.240Z,2.70
2022-11-05T06:18:34.504Z,2.53
2022-11-05T06:21:03.004Z,2.13
2022-11-05T06:23:31.836Z,2.40
2022-11-05T06:26:04.594Z,2.37
2022-11-05T06:28:33.540Z,2.83
2022-11-05T06:31:01.844Z,2.60
2022-11-05T06:33:31.840Z,2.53
2022-11-05T06:36:00.456Z,2.50
2022-11-05T06:38:29.296Z,3.00
2022-11-05T06:40:59.702Z,2.63
2022-11-05T06:43:29.589Z,2.60
2022-11-05T06:45:58.377Z,2.58
2022-11-05T06:48:28.893Z,2.97
2022-11-05T06:53:24.300Z,2.40
2022-11-05T06:55:54.255Z,2.90
2022-11-05T06:58:22.025Z,2.72
2022-11-05T07:00:51.261Z,2.40
2022-11-05T07:03:21.232Z,2.80
2022-11-05T07:05:52.396Z,3.10
2022-11-05T07:08:20.215Z,2.83
2022-11-05T07:10:50.078Z,2.60
2022-11-05T07:13:17.918Z,2.88
2022-11-05T07:15:45.780Z,2.60
2022-11-05T07:18:16.742Z,2.77
2022-11-05T07:20:44.736Z,2.43
2022-11-05T07:23:15.257Z,2.60
2022-11-05T07:25:54.279Z,2.43
2022-11-05T07:28:22.100Z,5.13
2022-11-05T07:30:52.061Z,3.60
2022-11-05T07:33:21.223Z,3.03
2022-11-05T07:35:48.993Z,2.93
2022-11-05T07:38:19.368Z,2.40
2022-11-05T07:40:47.161Z,2.50
2022-11-05T07:43:15.229Z,2.73
2022-11-05T07:45:46.896Z,2.30
2022-11-05T07:48:14.783Z,2.50
2022-11-05T07:50:44.091Z,2.37
2022-11-05T07:53:15.678Z,2.60
2022-11-05T07:55:45.976Z,2.27
2022-11-05T07:58:16.416Z,2.28
2022-11-05T08:03:15.026Z,2.37
2022-11-05T08:05:48.424Z,2.40
2022-11-05T08:08:19.789Z,2.30
2022-11-05T08:10:48.074Z,2.47
2022-11-05T08:13:16.350Z,2.27
2022-11-05T08:15:44.832Z,2.60
2022-11-05T08:18:16.138Z,2.17
2022-11-05T08:20:46.511Z,2.50
2022-11-05T08:23:15.369Z,2.67
2022-11-05T08:25:43.397Z,2.23
2022-11-05T08:28:12.998Z,2.30
2022-11-05T08:30:41.467Z,2.55
2022-11-05T08:33:12.175Z,2.50
2022-11-05T08:35:40.533Z,2.43
2022-11-05T08:38:14.674Z,2.60
2022-11-05T08:40:43.908Z,2.27
2022-11-05T08:43:13.950Z,2.47
2022-11-05T08:48:14.934Z,2.70
2022-11-05T08:50:43.497Z,2.47
2022-11-05T08:53:13.471Z,2.57
2022-11-05T08:55:41.962Z,2.50
2022-11-05T08:58:17.005Z,2.17
2022-11-05T09:00:46.755Z,2.63
2022-11-05T09:03:15.973Z,2.20
2022-11-05T09:05:44.323Z,2.27
2022-11-05T09:08:15.206Z,2.10
2022-11-05T09:10:44.118Z,2.43
2022-11-05T09:13:18.411Z,4.47
2022-11-05T09:15:47.985Z,3.67
2022-11-05T09:18:18.980Z,2.33
2022-11-05T09:20:47.402Z,2.20
2022-11-05T09:23:16.986Z,2.57
2022-11-05T09:25:45.534Z,2.55
2022-11-05T09:28:17.154Z,2.87
2022-11-05T09:30:48.901Z,2.43
2022-11-05T09:33:26.368Z,2.47
2022-11-05T09:35:54.620Z,2.40
2022-11-05T09:38:23.767Z,2.80
2022-11-05T09:40:58.485Z,3.00
2022-11-05T09:43:31.886Z,2.50
2022-11-05T09:46:05.018Z,3.23
2022-11-05T09:48:35.268Z,2.83
2022-11-05T09:51:06.947Z,3.00
2022-11-05T09:53:40.603Z,3.53
2022-11-05T09:56:24.383Z,3.73
2022-11-05T09:58:57.229Z,3.23
2022-11-05T10:01:30.238Z,3.67
2022-11-05T10:04:00.734Z,3.53
2022-11-05T10:06:29.074Z,3.50
2022-11-05T10:09:06.606Z,3.60
2022-11-05T10:11:43.737Z,4.33
2022-11-05T10:14:18.111Z,3.90
2022-11-05T10:16:54.173Z,3.70
2022-11-05T10:19:25.273Z,4.20
2022-11-05T10:22:12.239Z,3.73
2022-11-05T10:24:44.269Z,4.47
2022-11-05T10:27:17.552Z,4.27
2022-11-05T10:29:46.516Z,4.67
2022-11-05T10:32:21.288Z,4.30
2022-11-05T10:34:49.444Z,5.00
2022-11-05T10:37:17.865Z,5.40
2022-11-05T10:39:47.089Z,5.43
2022-11-05T10:42:35.112Z,5.13
2022-11-05T10:45:10.989Z,5.37
2022-11-05T10:47:59.236Z,5.97
2022-11-05T10:50:29.467Z,5.43
2022-11-05T10:53:02.354Z,5.55
2022-11-05T10:55:33.973Z,5.90
2022-11-05T10:58:27.515Z,6.03
2022-11-05T11:01:05.600Z,5.87
2022-11-05T11:03:36.880Z,5.77
2022-11-05T11:06:07.778Z,5.43
2022-11-05T11:08:37.663Z,5.43
2022-11-05T11:11:11.552Z,6.47
2022-11-05T11:14:03.524Z,4.93
2022-11-05T11:16:37.526Z,5.00
2022-11-05T11:19:24.336Z,5.00
2022-11-05T11:22:13.761Z,4.40
2022-11-05T11:24:45.280Z,4.87
2022-11-05T11:27:17.575Z,3.90
2022-11-05T11:29:50.079Z,4.20
2022-11-05T11:32:20.876Z,4.70
2022-11-05T11:34:52.821Z,4.13
2022-11-05T11:37:24.883Z,4.10
2022-11-05T11:39:56.093Z,4.33
2022-11-05T11:42:31.411Z,4.10
2022-11-05T11:45:06.498Z,5.40
2022-11-05T11:47:34.817Z,5.77
2022-11-05T11:50:05.576Z,6.40
2022-11-05T11:52:36.358Z,5.20
2022-11-05T11:55:20.953Z,5.27
2022-11-05T11:57:52.388Z,5.10
2022-11-05T12:00:21.995Z,6.40
2022-11-05T12:03:18.171Z,5.03
2022-11-05T12:05:52.697Z,5.97
2022-11-05T12:08:49.403Z,5.43
2022-11-05T12:11:27.996Z,5.47
2022-11-05T12:14:02.371Z,5.80
2022-11-05T12:16:45.660Z,5.30
2022-11-05T12:19:32.229Z,4.70
2022-11-05T12:22:10.558Z,5.00
2022-11-05T12:25:00.094Z,4.23
2022-11-05T12:27:41.247Z,4.80
2022-11-05T12:30:14.914Z,4.63
2022-11-05T12:32:56.842Z,4.03
2022-11-05T12:35:47.077Z,3.60
2022-11-05T12:38:29.903Z,3.43
2022-11-05T12:41:09.371Z,4.13
2022-11-05T12:43:50.008Z,4.63
2022-11-05T12:46:27.777Z,3.93
2022-11-05T12:49:21.301Z,3.80
2022-11-05T12:52:10.198Z,3.50
2022-11-05T12:54:51.398Z,4.13
2022-11-05T12:57:21.044Z,3.50
2022-11-05T12:59:56.128Z,3.50
2022-11-05T13:02:34.291Z,3.17
2022-11-05T13:05:06.926Z,3.43
2022-11-05T13:07:38.541Z,2.67
2022-11-05T13:10:16.343Z,2.33
2022-11-05T13:12:45.704Z,2.13
2022-11-05T13:15:25.126Z,2.50
2022-11-05T13:17:59.993Z,2.37
2022-11-05T13:20:31.338Z,2.40
2022-11-05T13:23:03.952Z,2.20
2022-11-05T13:25:38.882Z,2.30
2022-11-05T13:28:13.609Z,2.47
2022-11-05T13:30:45.097Z,2.13
2022-11-05T13:33:16.703Z,1.80
2022-11-05T13:35:48.186Z,2.43
2022-11-05T13:38:40.802Z,2.37
2022-11-05T13:41:22.643Z,2.40
2022-11-05T13:44:11.612Z,2.43
2022-11-05T13:46:57.171Z,2.50
2022-11-05T13:49:47.436Z,2.30
2022-11-05T13:52:55.871Z,2.63
2022-11-05T13:55:48.571Z,1.80
2022-11-05T13:58:49.508Z,2.30
2022-11-05T14:01:29.834Z,1.90
2022-11-05T14:03:58.096Z,2.33
2022-11-05T14:06:32.201Z,1.90
2022-11-05T14:09:03.488Z,2.43
2022-11-05T14:11:36.218Z,2.30
2022-11-05T14:14:08.271Z,2.27
2022-11-05T14:16:51.769Z,2.33
2022-11-05T14:19:36.156Z,2.17
2022-11-05T14:22:39.269Z,1.93
2022-11-05T14:25:40.519Z,1.97
2022-11-05T14:28:29.812Z,2.07
2022-11-05T14:30:57.691Z,1.90
2022-11-05T14:33:34.020Z,2.47
2022-11-05T14:36:31.256Z,2.10
2022-11-05T14:39:19.467Z,2.30
2022-11-05T14:41:59.923Z,2.33
2022-11-05T14:44:29.334Z,2.85
2022-11-05T14:47:00.246Z,2.60
2022-11-05T14:49:34.379Z,3.27
2022-11-05T14:52:08.131Z,2.90
2022-11-05T14:54:48.570Z,2.43
2022-11-05T14:57:37.442Z,2.95
2022-11-05T15:00:09.477Z,2.70
2022-11-05T15:02:39.379Z,2.97
2022-11-05T15:05:39.369Z,3.28
2022-11-05T15:08:33.856Z,3.47
2022-11-05T15:11:15.801Z,4.60
2022-11-05T15:13:52.523Z,4.17
2022-11-05T15:16:26.545Z,4.20
2022-11-05T15:18:56.113Z,4.30
2022-11-05T15:21:26.909Z,3.88
2022-11-05T15:23:57.534Z,3.90
2022-11-05T15:26:32.564Z,4.80
2022-11-05T15:29:02.053Z,3.67
2022-11-05T15:31:35.244Z,4.20
2022-11-05T15:34:21.467Z,6.77
2022-11-05T15:36:51.883Z,4.10
2022-11-05T15:39:29.794Z,3.95
2022-11-05T15:41:58.810Z,4.63
2022-11-05T15:44:28.849Z,4.53
2022-11-05T15:47:16.202Z,4.53
2022-11-05T15:49:45.978Z,4.43
2022-11-05T15:52:15.605Z,4.53
2022-11-05T15:54:44.623Z,4.07
2022-11-05T15:57:26.845Z,3.90
2022-11-05T15:59:58.794Z,3.97
2022-11-05T16:02:31.987Z,4.20
2022-11-05T16:05:01.366Z,4.10
2022-11-05T16:07:31.350Z,4.73
2022-11-05T16:10:01.786Z,6.38
2022-11-05T16:15:18.290Z,6.87
2022-11-05T16:17:52.423Z,10.47
2022-11-05T16:20:23.387Z,6.37
2022-11-05T16:22:53.474Z,8.20
2022-11-05T16:25:23.788Z,16.13
2022-11-05T16:27:55.799Z,7.85
2022-11-05T16:30:24.188Z,8.87
2022-11-05T16:32:54.019Z,9.17
2022-11-05T16:35:25.359Z,18.42
2022-11-05T16:37:53.715Z,8.70
2022-11-05T16:40:23.475Z,14.93
2022-11-05T16:42:53.221Z,6.53
2022-11-05T16:45:24.051Z,8.50
2022-11-05T16:47:55.474Z,6.90
2022-11-05T16:50:26.991Z,5.63
2022-11-05T16:52:54.923Z,5.80
2022-11-05T16:55:22.993Z,5.40
2022-11-05T16:57:56.553Z,6.70
2022-11-05T17:00:26.312Z,6.33
2022-11-05T17:02:55.863Z,6.40
2022-11-05T17:05:28.457Z,6.10
2022-11-05T17:07:57.187Z,6.70
2022-11-05T17:10:26.753Z,5.87
2022-11-05T17:12:57.098Z,6.10
2022-11-05T17:15:27.762Z,8.60
2022-11-05T17:18:00.718Z,8.30
2022-11-05T17:20:40.457Z,7.80
2022-11-05T17:23:10.192Z,8.93
2022-11-05T17:25:38.873Z,7.03
2022-11-05T17:28:09.908Z,7.27
2022-11-05T17:30:41.233Z,7.10
2022-11-05T17:33:12.080Z,7.77
2022-11-05T17:35:40.845Z,6.33
2022-11-05T17:38:08.788Z,5.47
2022-11-05T17:40:37.481Z,6.33
2022-11-05T17:43:06.103Z,6.20
2022-11-05T17:45:34.551Z,5.73
2022-11-05T17:48:03.356Z,5.57
2022-11-05T17:50:32.868Z,5.37
2022-11-05T17:53:00.775Z,5.70
2022-11-05T17:55:28.651Z,6.63
2022-11-05T17:57:58.865Z,6.07
2022-11-05T18:00:27.184Z,6.82
2022-11-05T18:02:55.603Z,5.80
2022-11-05T18:05:27.943Z,6.47
2022-11-05T18:07:57.857Z,7.20
2022-11-05T18:10:28.115Z,6.95
2022-11-05T18:12:56.058Z,6.88
2022-11-05T18:15:23.944Z,8.70
2022-11-05T18:17:53.984Z,10.80
2022-11-05T18:20:22.244Z,7.97
2022-11-05T18:22:51.592Z,9.23
2022-11-05T18:25:22.890Z,9.43
2022-11-05T18:27:50.702Z,7.73
2022-11-05T18:30:21.091Z,7.60
2022-11-05T18:32:51.135Z,6.80
2022-11-05T18:35:19.369Z,7.57
2022-11-05T18:37:47.287Z,7.67
2022-11-05T18:40:15.241Z,8.13
2022-11-05T18:42:44.430Z,9.50
2022-11-05T18:45:13.084Z,9.43
2022-11-05T18:47:41.172Z,8.47
2022-11-05T18:50:10.509Z,10.03
2022-11-05T18:52:38.371Z,10.17
2022-11-05T18:55:07.409Z,26.93
2022-11-05T18:57:35.555Z,19.57
2022-11-05T19:00:05.863Z,9.77
2022-11-05T19:02:34.273Z,8.55
2022-11-05T19:07:50.238Z,7.80
2022-11-05T19:10:18.239Z,8.43
2022-11-05T19:12:46.005Z,9.27
2022-11-05T19:15:17.508Z,9.60
2022-11-05T19:17:45.867Z,9.27
2022-11-05T19:20:13.755Z,9.33
2022-11-05T19:22:43.834Z,8.83
2022-11-05T19:25:11.798Z,9.27
2022-11-05T19:27:39.737Z,10.00
2022-11-05T19:30:10.338Z,11.37
2022-11-05T19:32:39.680Z,10.27
2022-11-05T19:35:07.941Z,8.43
2022-11-05T19:37:35.970Z,8.57
2022-11-05T19:40:03.893Z,8.23
2022-11-05T19:42:31.745Z,8.17
2022-11-05T19:45:16.638Z,9.53
2022-11-05T19:47:48.857Z,8.30
2022-11-05T19:50:16.820Z,8.80
2022-11-05T19:52:44.609Z,9.00
2022-11-05T19:55:12.578Z,9.87
2022-11-05T19:57:42.637Z,8.83
2022-11-05T20:00:11.563Z,8.25
2022-11-05T20:02:39.859Z,7.90
2022-11-05T20:05:09.773Z,7.23
2022-11-05T20:07:37.625Z,8.27
2022-11-05T20:10:06.619Z,7.50
2022-11-05T20:12:36.717Z,8.00
2022-11-05T20:15:07.087Z,7.90
2022-11-05T20:17:34.909Z,8.82
2022-11-05T20:20:05.784Z,7.70
2022-11-05T20:22:38.414Z,8.00
2022-11-05T20:25:07.241Z,8.17
2022-11-05T20:27:35.245Z,6.57
2022-11-05T20:30:08.475Z,7.43
2022-11-05T20:32:36.460Z,6.43
2022-11-05T20:35:06.131Z,6.33
2022-11-05T20:37:36.574Z,5.70
2022-11-05T20:42:32.392Z,5.40
2022-11-05T20:45:02.487Z,5.30
2022-11-05T20:47:30.264Z,5.28
2022-11-05T20:49:58.472Z,4.70
2022-11-05T20:52:29.544Z,4.60
2022-11-05T20:54:58.898Z,5.20
2022-11-05T20:57:26.997Z,5.03
2022-11-05T20:59:56.964Z,4.90
2022-11-05T21:02:24.860Z,4.30
2022-11-05T21:04:52.772Z,4.90
2022-11-05T21:07:20.748Z,5.00
2022-11-05T21:09:48.487Z,3.80
2022-11-05T21:12:18.591Z,4.50
2022-11-05T21:14:49.623Z,4.95
2022-11-05T21:17:17.964Z,4.30
2022-11-05T21:19:45.724Z,4.10
2022-11-05T21:22:16.194Z,4.13
2022-11-05T21:27:12.135Z,4.63
2022-11-05T21:29:43.189Z,4.57
2022-11-05T21:32:11.714Z,5.00
2022-11-05T21:34:39.729Z,4.37
2022-11-05T21:37:09.703Z,4.73
2022-11-05T21:39:37.506Z,5.22
2022-11-05T21:42:05.421Z,5.03
2022-11-05T21:44:35.548Z,4.10
2022-11-05T21:47:04.967Z,4.22
2022-11-05T21:49:35.173Z,3.63
2022-11-05T21:52:23.079Z,2.92
2022-11-05T21:55:08.352Z,3.87
2022-11-05T21:57:56.019Z,3.27
2022-11-05T22:00:24.064Z,3.60
2022-11-05T22:02:55.157Z,3.77
2022-11-05T22:05:23.118Z,3.30
2022-11-05T22:07:50.968Z,3.40
2022-11-05T22:10:18.908Z,2.73
2022-11-05T22:12:47.022Z,3.33
2022-11-05T22:15:15.167Z,3.17
2022-11-05T22:17:46.935Z,3.30
2022-11-05T22:20:17.766Z,2.90
2022-11-05T22:22:47.784Z,3.35
2022-11-05T22:25:16.077Z,3.08
2022-11-05T22:27:44.269Z,2.80
2022-11-05T22:30:15.493Z,2.70
2022-11-05T22:32:43.346Z,2.57
2022-11-05T22:35:11.609Z,2.70
2022-11-05T22:37:44.831Z,2.50
2022-11-05T22:40:12.933Z,2.80
2022-11-05T22:42:40.797Z,2.70
2022-11-05T22:45:11.186Z,2.70
2022-11-05T22:47:38.995Z,2.42
2022-11-05T22:50:07.555Z,3.07
2022-11-05T22:52:37.538Z,2.47
2022-11-05T22:55:07.438Z,2.17
2022-11-05T22:57:35.184Z,2.30
2022-11-05T23:00:08.081Z,2.37
2022-11-05T23:02:36.023Z,2.33
2022-11-05T23:05:03.840Z,1.90
2022-11-05T23:07:51.376Z,2.10
2022-11-05T23:10:38.499Z,1.60
2022-11-05T23:13:08.750Z,2.53
2022-11-05T23:15:54.146Z,1.85
2022-11-05T23:18:41.589Z,1.93
2022-11-05T23:21:27.032Z,1.40
2022-11-05T23:24:05.830Z,1.80
2022-11-05T23:26:51.085Z,1.50
2022-11-05T23:29:22.854Z,1.63
2022-11-05T23:32:10.434Z,1.30
2022-11-05T23:34:40.618Z,1.57
2022-11-05T23:37:26.216Z,1.45
2022-11-05T23:39:56.176Z,1.30
2022-11-05T23:42:42.833Z,1.30
2022-11-05T23:45:30.623Z,1.30
2022-11-05T23:48:16.389Z,1.47
2022-11-05T23:50:49.362Z,1.83
2022-11-05T23:53:17.226Z,1.67
2022-11-05T23:55:45.288Z,1.50
2022-11-05T23:58:17.016Z,1.30
